Time;durP1;ratioP1;P1;durP2;ratioP2;P2;SDS_P1;SDS_P2;PMS_P1;PMS_P2;Temp;Humidity;BMP_temperature;BMP_pressure;BME280_temperature;BME280_humidity;BME280_pressure;Samples;Min_cycle;Max_cycle;Signal;HPM_P1;HPM_P2
2021/05/31 00:00:12;;;;;;;5.28;4.07;;;8.90;55.80;;;;;;5136396;27;20290;-69
2021/05/31 00:02:38;;;;;;;5.10;4.13;;;8.90;56.30;;;;;;5168637;27;20277;-69
2021/05/31 00:05:10;;;;;;;6.80;4.18;;;8.80;56.70;;;;;;5177744;27;20217;-69
2021/05/31 00:07:36;;;;;;;4.55;3.65;;;8.70;57.00;;;;;;5174869;27;20194;-69
2021/05/31 00:10:05;;;;;;;6.13;4.55;;;8.70;56.90;;;;;;5178168;27;20190;-69
2021/05/31 00:12:32;;;;;;;9.40;3.92;;;8.60;56.90;;;;;;5144037;27;20653;-69
2021/05/31 00:14:58;;;;;;;5.55;4.45;;;8.60;56.80;;;;;;5162395;27;20182;-69
2021/05/31 00:17:26;;;;;;;6.70;3.88;;;8.50;57.20;;;;;;5178178;27;20638;-68
2021/05/31 00:19:54;;;;;;;7.32;5.57;;;8.40;57.70;;;;;;5153715;27;20598;-69
2021/05/31 00:22:22;;;;;;;6.88;4.82;;;8.30;57.60;;;;;;5136429;27;20195;-68
2021/05/31 00:24:48;;;;;;;8.75;5.43;;;8.30;58.00;;;;;;5157251;27;20562;-68
2021/05/31 00:27:16;;;;;;;6.22;4.90;;;8.30;57.90;;;;;;5177884;27;20186;-69
2021/05/31 00:29:43;;;;;;;7.40;5.18;;;8.30;58.00;;;;;;5158756;27;20509;-68
2021/05/31 00:32:09;;;;;;;11.40;5.50;;;8.30;57.80;;;;;;5136248;27;20658;-68
2021/05/31 00:34:38;;;;;;;5.90;4.50;;;8.30;57.80;;;;;;5176003;27;20182;-71
2021/05/31 00:37:05;;;;;;;7.13;3.95;;;8.30;58.10;;;;;;5157260;27;20194;-68
2021/05/31 00:39:33;;;;;;;7.18;4.30;;;8.20;58.20;;;;;;5135929;27;20202;-69
2021/05/31 00:42:00;;;;;;;4.65;3.75;;;8.10;58.30;;;;;;5153143;27;20215;-68
2021/05/31 00:44:27;;;;;;;5.22;4.45;;;8.00;58.30;;;;;;5177325;27;20229;-68
2021/05/31 00:46:54;;;;;;;6.85;4.63;;;8.00;58.30;;;;;;5160728;27;20191;-68
2021/05/31 00:49:23;;;;;;;9.00;4.00;;;8.00;58.70;;;;;;5135868;27;20237;-68
2021/05/31 00:51:51;;;;;;;5.25;3.58;;;8.00;58.80;;;;;;5149860;27;20190;-69
2021/05/31 00:54:19;;;;;;;5.00;3.75;;;8.00;58.60;;;;;;5176274;27;20230;-69
2021/05/31 00:56:46;;;;;;;6.53;4.35;;;8.00;59.10;;;;;;5163350;27;20188;-68
2021/05/31 00:59:13;;;;;;;6.18;3.80;;;8.00;59.50;;;;;;5135697;27;20199;-69
2021/05/31 01:01:40;;;;;;;6.35;4.72;;;8.00;59.30;;;;;;5146290;27;20187;-69
2021/05/31 01:04:07;;;;;;;10.68;4.63;;;7.90;59.30;;;;;;5176983;27;20218;-69
2021/05/31 01:06:37;;;;;;;9.15;5.38;;;7.80;59.30;;;;;;5166823;27;20187;-68
2021/05/31 01:09:11;;;;;;;8.20;5.05;;;7.70;59.30;;;;;;5135553;27;20204;-69
2021/05/31 01:11:50;;;;;;;16.73;6.75;;;7.70;59.00;;;;;;5145136;27;20542;-68
2021/05/31 01:14:25;;;;;;;10.18;5.30;;;7.60;59.20;;;;;;5176964;27;20224;-68
2021/05/31 01:16:57;;;;;;;6.07;4.47;;;7.60;59.90;;;;;;5162505;27;20277;-68
2021/05/31 01:19:47;;;;;;;5.78;4.55;;;7.60;60.30;;;;;;5149679;27;20183;-68
2021/05/31 01:22:14;;;;;;;10.93;4.35;;;7.60;60.80;;;;;;5176703;27;20196;-68
2021/05/31 01:24:58;;;;;;;8.40;4.40;;;7.50;60.60;;;;;;5159148;27;20215;-68
2021/05/31 01:27:36;;;;;;;8.10;4.95;;;7.50;59.90;;;;;;5157936;27;20198;-68
2021/05/31 01:30:06;;;;;;;5.35;3.97;;;7.40;60.60;;;;;;5154456;27;20194;-69
2021/05/31 01:32:37;;;;;;;6.00;4.72;;;7.40;62.00;;;;;;5135172;27;20637;-69
2021/05/31 01:35:06;;;;;;;7.95;3.67;;;7.30;61.30;;;;;;5153478;27;20183;-68
2021/05/31 01:37:35;;;;;;;7.40;4.45;;;7.30;60.70;;;;;;5152578;27;20188;-68
2021/05/31 01:40:05;;;;;;;9.70;5.60;;;7.30;60.60;;;;;;5176386;27;20187;-68
2021/05/31 01:42:33;;;;;;;9.15;4.95;;;7.30;60.60;;;;;;5176012;27;20190;-69
2021/05/31 01:45:01;;;;;;;5.80;5.03;;;7.30;60.50;;;;;;5134620;27;20215;-68
2021/05/31 01:47:29;;;;;;;6.80;4.13;;;7.20;60.80;;;;;;5157235;27;20178;-68
2021/05/31 01:49:56;;;;;;;5.68;4.18;;;7.20;61.50;;;;;;5176205;27;20182;-69
2021/05/31 01:52:24;;;;;;;5.50;3.75;;;7.30;61.70;;;;;;5155500;27;20179;-69
2021/05/31 01:54:53;;;;;;;9.55;4.15;;;7.20;61.90;;;;;;5134474;27;20191;-68
2021/05/31 01:57:21;;;;;;;5.75;4.13;;;7.00;62.80;;;;;;5154001;27;20175;-68
2021/05/31 01:59:48;;;;;;;5.47;4.05;;;6.90;62.80;;;;;;5175902;27;20186;-69
2021/05/31 02:02:15;;;;;;;5.20;4.10;;;6.90;62.70;;;;;;5157843;27;20183;-69
2021/05/31 02:04:43;;;;;;;6.50;3.85;;;6.90;62.50;;;;;;5133993;27;20264;-69
2021/05/31 02:07:10;;;;;;;7.10;4.38;;;6.90;62.70;;;;;;5155328;27;20273;-69
2021/05/31 02:09:38;;;;;;;6.20;4.25;;;6.90;62.50;;;;;;5175940;27;20235;-69
2021/05/31 02:12:09;;;;;;;6.75;5.13;;;6.80;62.60;;;;;;5156450;27;20184;-69
2021/05/31 02:14:43;;;;;;;8.32;5.28;;;6.80;62.80;;;;;;5134231;27;20530;-69
2021/05/31 02:17:16;;;;;;;6.47;5.00;;;6.70;63.30;;;;;;5136555;27;20630;-69
2021/05/31 02:19:46;;;;;;;5.65;4.35;;;6.60;63.70;;;;;;5134171;27;20195;-68
2021/05/31 02:22:14;;;;;;;5.55;4.20;;;6.50;63.60;;;;;;5154254;27;20194;-68
2021/05/31 02:24:41;;;;;;;7.32;4.28;;;6.60;63.90;;;;;;5175445;27;20218;-68
2021/05/31 02:27:09;;;;;;;4.05;2.90;;;6.60;63.60;;;;;;5157048;27;20207;-68
2021/05/31 02:29:36;;;;;;;5.63;3.60;;;6.50;63.90;;;;;;5133885;27;20188;-69
2021/05/31 02:32:06;;;;;;;6.00;3.90;;;6.50;64.00;;;;;;5148932;27;20650;-68
2021/05/31 02:34:33;;;;;;;6.43;4.70;;;6.50;64.10;;;;;;5175526;27;20589;-69
2021/05/31 02:37:01;;;;;;;6.43;4.13;;;6.50;64.80;;;;;;5159871;27;20187;-68
2021/05/31 02:39:28;;;;;;;4.93;3.70;;;6.50;65.30;;;;;;5133828;27;20282;-68
2021/05/31 02:41:54;;;;;;;7.13;3.92;;;6.60;65.70;;;;;;5145834;27;20198;-68
2021/05/31 02:44:21;;;;;;;5.80;3.72;;;6.50;64.00;;;;;;5175012;27;20214;-69
2021/05/31 02:46:48;;;;;;;6.93;5.13;;;6.50;63.70;;;;;;5163655;27;20740;-68
2021/05/31 02:49:14;;;;;;;6.68;4.00;;;6.50;63.70;;;;;;5133695;27;20191;-68
2021/05/31 02:51:41;;;;;;;5.97;4.22;;;6.50;64.30;;;;;;5141219;27;20223;-68
2021/05/31 02:54:11;;;;;;;11.70;4.63;;;6.50;64.70;;;;;;5174738;27;20274;-68
2021/05/31 02:56:38;;;;;;;9.15;4.15;;;6.50;64.90;;;;;;5169213;27;20186;-68
2021/05/31 02:59:04;;;;;;;6.70;4.15;;;6.40;64.40;;;;;;5133417;28;20642;-68
2021/05/31 03:01:31;;;;;;;8.35;5.90;;;6.30;64.80;;;;;;5135590;27;20191;-68
2021/05/31 03:03:58;;;;;;;16.77;6.55;;;6.20;65.10;;;;;;5175057;27;20192;-69
2021/05/31 03:06:24;;;;;;;7.38;4.90;;;6.20;66.40;;;;;;5173437;27;20190;-69
2021/05/31 03:08:51;;;;;;;5.68;4.20;;;6.20;67.40;;;;;;5133472;27;20770;-69
2021/05/31 03:11:19;;;;;;;8.38;4.82;;;6.20;66.60;;;;;;5137745;27;20187;-68
2021/05/31 03:13:45;;;;;;;11.27;4.53;;;6.20;66.70;;;;;;5174353;27;20186;-68
2021/05/31 03:16:12;;;;;;;8.10;4.68;;;6.10;66.60;;;;;;5172637;27;20193;-68
2021/05/31 03:18:38;;;;;;;7.97;5.25;;;6.10;66.90;;;;;;5137742;27;20575;-68
2021/05/31 03:21:05;;;;;;;7.13;4.25;;;6.10;66.70;;;;;;5137654;27;20641;-68
2021/05/31 03:23:32;;;;;;;5.50;4.13;;;6.20;66.50;;;;;;5177777;27;20182;-68
2021/05/31 03:25:58;;;;;;;5.65;4.10;;;6.20;66.70;;;;;;5178890;27;20672;-68
2021/05/31 03:28:26;;;;;;;7.63;5.85;;;6.20;67.50;;;;;;5139234;27;20184;-69
2021/05/31 03:30:53;;;;;;;9.52;5.78;;;6.20;68.10;;;;;;5142696;27;20192;-68
2021/05/31 03:33:19;;;;;;;4.75;3.53;;;6.20;68.10;;;;;;5178950;27;20690;-68
2021/05/31 03:35:46;;;;;;;7.65;4.20;;;6.20;67.70;;;;;;5176204;27;20197;-69
2021/05/31 03:38:13;;;;;;;9.05;7.10;;;6.10;68.30;;;;;;5137448;27;20184;-69
2021/05/31 03:40:40;;;;;;;11.68;6.95;;;6.10;67.40;;;;;;5137337;27;20202;-68
2021/05/31 03:43:07;;;;;;;10.68;7.25;;;6.10;67.10;;;;;;5177507;27;20282;-70
2021/05/31 03:45:35;;;;;;;8.82;6.13;;;6.10;66.90;;;;;;5178670;27;20214;-68
2021/05/31 03:48:01;;;;;;;8.13;5.55;;;6.00;66.90;;;;;;5138767;27;20183;-68
2021/05/31 03:50:29;;;;;;;11.20;7.70;;;6.00;67.50;;;;;;5137160;27;20195;-68
2021/05/31 03:52:55;;;;;;;12.43;8.23;;;5.90;67.50;;;;;;5173277;27;20183;-68
2021/05/31 03:55:22;;;;;;;10.20;7.82;;;5.80;68.10;;;;;;5178417;27;20289;-68
2021/05/31 03:57:48;;;;;;;8.30;5.85;;;5.80;68.70;;;;;;5142761;27;20267;-68
2021/05/31 04:00:16;;;;;;;8.00;5.32;;;5.80;68.90;;;;;;5137627;27;20219;-68
2021/05/31 04:02:44;;;;;;;8.90;4.75;;;5.80;69.20;;;;;;5136993;27;20192;-68
2021/05/31 04:05:14;;;;;;;9.05;5.10;;;5.80;68.90;;;;;;5166391;27;20214;-69
2021/05/31 04:13:14;;;;;;;5.68;4.30;;;5.90;70.40;;;;;;5136896;27;20309;-68
2021/05/31 04:15:40;;;;;;;6.53;3.70;;;5.90;70.40;;;;;;5136702;27;20188;-68
2021/05/31 04:18:09;;;;;;;4.55;3.22;;;5.80;70.80;;;;;;5136801;27;20192;-69
2021/05/31 04:20:35;;;;;;;5.30;3.72;;;5.90;70.70;;;;;;5136558;27;20199;-68
2021/05/31 04:23:02;;;;;;;6.10;4.28;;;5.90;71.00;;;;;;5136634;27;20190;-68
2021/05/31 04:25:29;;;;;;;8.25;4.53;;;6.00;71.20;;;;;;5174962;27;20282;-68
2021/05/31 04:27:56;;;;;;;7.50;4.13;;;6.00;70.80;;;;;;5177870;27;20651;-68
2021/05/31 04:30:25;;;;;;;7.75;4.95;;;6.10;70.80;;;;;;5139421;27;20190;-68
2021/05/31 04:32:51;;;;;;;9.25;5.65;;;6.10;70.90;;;;;;5136704;27;20219;-69
2021/05/31 04:35:19;;;;;;;6.57;4.80;;;6.10;71.10;;;;;;5136522;27;20184;-68
2021/05/31 04:37:46;;;;;;;6.15;4.13;;;6.10;71.20;;;;;;5136208;27;20240;-68
2021/05/31 04:40:13;;;;;;;8.65;4.50;;;6.10;72.10;;;;;;5176004;27;20629;-68
2021/05/31 04:42:40;;;;;;;6.00;4.10;;;6.20;72.50;;;;;;5177667;27;20550;-68
2021/05/31 04:45:11;;;;;;;6.60;4.25;;;6.30;73.40;;;;;;5139554;27;20207;-69
2021/05/31 04:47:38;;;;;;;8.52;5.10;;;6.50;73.80;;;;;;5136267;27;20191;-68
2021/05/31 04:50:05;;;;;;;9.65;4.47;;;6.60;73.40;;;;;;5136077;27;20715;-68
2021/05/31 04:52:33;;;;;;;8.18;5.15;;;6.70;73.10;;;;;;5135982;27;20195;-68
2021/05/31 04:55:00;;;;;;;5.32;4.32;;;6.80;73.20;;;;;;5170978;27;20179;-68
2021/05/31 04:57:26;;;;;;;6.25;4.40;;;6.90;73.10;;;;;;5177548;27;20203;-69
2021/05/31 04:59:53;;;;;;;6.85;4.65;;;7.00;72.90;;;;;;5144770;27;20194;-68
2021/05/31 05:02:19;;;;;;;13.82;4.43;;;7.10;73.40;;;;;;5135860;27;20240;-68
2021/05/31 05:04:46;;;;;;;7.15;4.40;;;7.20;74.30;;;;;;5165711;27;20210;-68
2021/05/31 05:07:13;;;;;;;7.03;3.95;;;7.30;73.30;;;;;;5177244;27;20182;-69
2021/05/31 05:09:42;;;;;;;6.00;3.90;;;7.50;73.90;;;;;;5149448;27;20187;-69
2021/05/31 05:12:09;;;;;;;6.53;4.15;;;7.60;73.90;;;;;;5135688;27;20188;-68
2021/05/31 05:14:36;;;;;;;6.85;4.03;;;7.70;73.00;;;;;;5141535;27;20206;-69
2021/05/31 05:17:04;;;;;;;8.30;4.68;;;7.80;73.20;;;;;;5153453;27;20198;-69
2021/05/31 05:19:31;;;;;;;7.97;4.15;;;8.00;73.20;;;;;;5148331;27;20525;-68
2021/05/31 05:21:57;;;;;;;5.60;4.20;;;8.20;73.50;;;;;;5153521;27;20187;-68
2021/05/31 05:24:24;;;;;;;6.22;5.05;;;8.30;73.90;;;;;;5150931;27;20211;-68
2021/05/31 05:26:53;;;;;;;6.18;5.22;;;8.40;74.10;;;;;;5152789;27;20218;-69
2021/05/31 05:29:20;;;;;;;7.95;6.32;;;8.60;73.50;;;;;;5147855;27;20552;-69
2021/05/31 05:31:47;;;;;;;5.60;4.40;;;8.70;72.60;;;;;;5141479;27;20254;-69
2021/05/31 05:34:13;;;;;;;8.10;4.70;;;8.80;71.10;;;;;;5134411;27;20188;-70
2021/05/31 05:36:48;;;;;;;7.20;4.28;;;8.90;70.10;;;;;;5152070;27;20202;-71
2021/05/31 05:42:10;;;;;;;4.72;3.47;;;9.10;68.90;;;;;;5151421;27;20199;-69
2021/05/31 05:45:03;;;;;;;5.60;4.10;;;9.20;69.10;;;;;;5150736;27;20267;-69
2021/05/31 05:47:46;;;;;;;5.72;4.03;;;9.40;66.60;;;;;;5152125;27;20191;-70
2021/05/31 05:50:15;;;;;;;6.57;5.15;;;9.50;66.40;;;;;;5150127;27;20188;-70
2021/05/31 05:52:42;;;;;;;6.80;5.05;;;9.60;66.60;;;;;;5134304;27;20716;-69
2021/05/31 05:55:11;;;;;;;5.03;3.47;;;9.70;65.00;;;;;;5135775;27;20196;-71
2021/05/31 05:57:39;;;;;;;5.47;4.63;;;9.80;64.80;;;;;;5152544;27;20187;-72
2021/05/31 06:00:09;;;;;;;7.47;4.35;;;10.00;64.60;;;;;;5151634;27;20187;-69
2021/05/31 06:02:37;;;;;;;5.97;4.28;;;10.10;65.50;;;;;;5151521;27;20191;-70
2021/05/31 06:05:04;;;;;;;6.05;4.70;;;10.30;65.40;;;;;;5148026;27;20215;-74
2021/05/31 06:07:31;;;;;;;4.97;3.50;;;10.30;64.10;;;;;;5151582;27;20222;-69
2021/05/31 06:09:57;;;;;;;5.05;3.75;;;10.40;63.70;;;;;;5152217;27;20191;-74
2021/05/31 06:12:25;;;;;;;10.23;4.78;;;10.50;63.00;;;;;;5148726;27;20176;-71
2021/05/31 06:14:53;;;;;;;4.53;3.80;;;10.60;62.10;;;;;;5147911;27;20187;-69
2021/05/31 06:17:26;;;;;;;7.30;4.40;;;10.70;61.50;;;;;;5135036;27;20673;-69
2021/05/31 06:19:59;;;;;;;5.43;3.70;;;10.80;60.50;;;;;;5133583;27;20244;-69
2021/05/31 06:22:26;;;;;;;5.95;3.30;;;10.90;61.50;;;;;;5148192;27;20676;-69
2021/05/31 06:24:53;;;;;;;10.93;4.03;;;11.00;60.00;;;;;;5143073;27;20219;-70
2021/05/31 06:27:20;;;;;;;4.57;3.40;;;11.10;59.70;;;;;;5139511;27;20561;-69
2021/05/31 06:29:46;;;;;;;5.00;3.75;;;11.20;59.70;;;;;;5136569;27;20195;-74
2021/05/31 06:32:14;;;;;;;10.30;4.05;;;11.30;59.30;;;;;;5144163;27;20194;-70
2021/05/31 06:34:41;;;;;;;5.93;4.07;;;11.40;59.00;;;;;;5134080;27;20187;-69
2021/05/31 06:37:09;;;;;;;6.10;4.25;;;11.60;59.00;;;;;;5139325;27;20610;-69
2021/05/31 06:39:38;;;;;;;6.50;5.35;;;11.70;58.50;;;;;;5137597;27;20195;-69
2021/05/31 06:42:06;;;;;;;8.90;5.63;;;11.80;58.00;;;;;;5143911;27;20218;-69
2021/05/31 06:44:32;;;;;;;5.53;4.05;;;11.90;57.10;;;;;;5141739;27;20310;-69
2021/05/31 06:47:00;;;;;;;4.97;4.00;;;12.00;56.30;;;;;;5141410;27;20315;-70
2021/05/31 06:49:28;;;;;;;9.15;3.78;;;12.10;56.00;;;;;;5139010;27;20192;-69
2021/05/31 06:51:55;;;;;;;5.00;3.15;;;12.20;56.00;;;;;;5139735;27;20638;-69
2021/05/31 06:54:21;;;;;;;5.65;3.65;;;12.30;55.90;;;;;;5142729;27;20612;-70
2021/05/31 06:56:48;;;;;;;6.97;3.47;;;12.40;55.90;;;;;;5142213;27;20190;-70
2021/05/31 06:59:14;;;;;;;6.75;3.72;;;12.50;56.10;;;;;;5140832;27;20218;-69
2021/05/31 07:01:40;;;;;;;4.40;3.40;;;12.60;56.60;;;;;;5146832;27;20846;-70
2021/05/31 07:04:07;;;;;;;4.65;3.17;;;12.80;56.30;;;;;;5139755;27;20226;-70
2021/05/31 07:06:37;;;;;;;6.25;3.85;;;12.80;55.10;;;;;;5139318;27;20250;-69
2021/05/31 07:09:05;;;;;;;4.70;3.35;;;13.00;56.10;;;;;;5137339;27;20239;-70
2021/05/31 07:11:31;;;;;;;6.05;3.20;;;13.10;56.20;;;;;;5126503;27;20192;-69
2021/05/31 07:14:00;;;;;;;7.75;3.30;;;13.20;56.20;;;;;;5140353;27;20543;-69
2021/05/31 07:16:30;;;;;;;4.47;3.03;;;13.30;56.40;;;;;;5145734;27;20665;-69
2021/05/31 07:18:56;;;;;;;5.05;3.38;;;13.40;54.70;;;;;;5136622;27;20267;-70
2021/05/31 07:21:23;;;;;;;3.95;2.83;;;13.60;54.90;;;;;;5142735;27;20188;-69
2021/05/31 07:23:51;;;;;;;6.15;3.60;;;13.70;55.60;;;;;;5141103;27;20195;-69
2021/05/31 07:26:17;;;;;;;4.78;3.72;;;13.90;55.20;;;;;;5141194;27;20274;-69
2021/05/31 07:28:45;;;;;;;6.57;3.33;;;14.00;54.80;;;;;;5139975;27;20192;-70
2021/05/31 07:31:12;;;;;;;5.60;2.60;;;14.20;54.90;;;;;;5139617;27;20433;-74
2021/05/31 07:33:38;;;;;;;8.85;3.55;;;14.30;53.30;;;;;;5139201;27;20191;-70
2021/05/31 07:36:06;;;;;;;5.28;3.13;;;14.50;53.20;;;;;;5140801;27;20196;-70
2021/05/31 07:38:33;;;;;;;3.80;3.10;;;14.60;52.60;;;;;;5139350;27;20180;-70
2021/05/31 07:41:05;;;;;;;3.87;2.97;;;14.80;53.40;;;;;;5141283;27;20450;-70
2021/05/31 07:43:31;;;;;;;5.57;3.00;;;14.90;53.30;;;;;;5144502;27;20447;-70
2021/05/31 07:45:59;;;;;;;5.53;2.80;;;15.10;52.50;;;;;;5140624;27;20529;-70
2021/05/31 07:48:26;;;;;;;5.00;2.73;;;15.30;52.20;;;;;;5141002;27;20430;-71
2021/05/31 07:50:53;;;;;;;3.57;2.93;;;15.40;52.20;;;;;;5140188;27;20448;-70
2021/05/31 07:53:22;;;;;;;6.30;3.40;;;15.50;51.10;;;;;;5137999;27;20511;-70
2021/05/31 07:55:49;;;;;;;5.70;2.87;;;15.60;50.50;;;;;;5144822;27;20607;-71
2021/05/31 07:58:17;;;;;;;3.80;2.63;;;15.70;50.50;;;;;;5140087;27;20440;-70
2021/05/31 08:00:44;;;;;;;6.47;3.07;;;15.90;49.80;;;;;;5139328;27;20556;-69
2021/05/31 08:03:10;;;;;;;3.73;2.30;;;16.00;50.50;;;;;;5143189;27;20436;-70
2021/05/31 08:05:42;;;;;;;7.07;3.10;;;16.10;50.00;;;;;;5142898;27;20503;-70
2021/05/31 08:08:11;;;;;;;4.30;3.03;;;16.40;49.50;;;;;;5140215;27;20437;-70
2021/05/31 08:10:38;;;;;;;4.20;2.90;;;16.50;47.60;;;;;;5144155;27;20446;-70
2021/05/31 08:13:08;;;;;;;2.90;2.27;;;16.60;45.80;;;;;;5143756;27;20450;-70
2021/05/31 08:15:40;;;;;;;2.30;1.60;;;16.70;39.70;;;;;;5143558;27;20444;-70
2021/05/31 08:18:07;;;;;;;3.07;1.77;;;16.80;37.10;;;;;;5143999;27;20436;-70
2021/05/31 08:20:34;;;;;;;4.80;1.90;;;16.90;37.70;;;;;;5145558;27;20481;-70
2021/05/31 08:23:02;;;;;;;3.70;2.83;;;16.90;39.00;;;;;;5144285;27;20531;-69
2021/05/31 08:25:28;;;;;;;3.90;2.60;;;17.10;40.70;;;;;;5140423;27;21020;-70
2021/05/31 08:27:55;;;;;;;2.77;2.07;;;17.20;42.10;;;;;;5137766;27;20497;-69
2021/05/31 08:30:27;;;;;;;5.10;2.60;;;17.20;42.10;;;;;;5140119;27;20871;-71
2021/05/31 08:32:57;;;;;;;3.80;2.60;;;17.30;41.60;;;;;;5151144;27;20444;-69
2021/05/31 08:35:24;;;;;;;3.50;2.37;;;17.50;42.10;;;;;;5151231;27;20432;-69
2021/05/31 08:37:52;;;;;;;3.87;2.53;;;17.60;42.60;;;;;;5147429;27;20440;-70
2021/05/31 08:40:19;;;;;;;4.47;2.20;;;17.80;42.90;;;;;;5145291;27;20432;-69
2021/05/31 08:42:46;;;;;;;3.57;2.53;;;17.90;42.60;;;;;;5144767;27;20446;-72
2021/05/31 08:45:16;;;;;;;3.60;2.87;;;17.90;41.70;;;;;;5145209;27;20484;-69
2021/05/31 08:47:44;;;;;;;4.60;2.53;;;18.10;41.50;;;;;;5141985;27;20813;-69
2021/05/31 08:50:15;;;;;;;7.20;2.90;;;18.20;41.30;;;;;;5142237;27;20445;-69
2021/05/31 08:52:44;;;;;;;6.20;2.67;;;18.30;42.20;;;;;;5142614;27;20443;-69
2021/05/31 08:55:15;;;;;;;4.10;2.60;;;18.40;40.70;;;;;;5141129;27;20581;-69
2021/05/31 08:57:42;;;;;;;3.47;2.20;;;18.50;40.00;;;;;;5145635;27;20440;-69
2021/05/31 09:00:12;;;;;;;3.33;2.47;;;18.60;39.50;;;;;;5146088;27;20445;-69
2021/05/31 09:02:42;;;;;;;2.80;2.33;;;18.70;39.60;;;;;;5144985;27;20442;-69
2021/05/31 09:05:28;;;;;;;4.93;2.23;;;18.80;39.20;;;;;;5140228;27;20512;-69
2021/05/31 09:07:55;;;;;;;3.57;2.27;;;18.80;37.20;;;;;;5141894;27;20447;-70
2021/05/31 09:10:25;;;;;;;2.83;2.10;;;18.90;37.90;;;;;;5141340;27;20463;-69
2021/05/31 09:12:55;;;;;;;2.90;2.10;;;19.00;37.70;;;;;;5142107;27;20444;-70
2021/05/31 09:15:22;;;;;;;4.30;2.20;;;19.10;39.20;;;;;;5141282;27;20445;-69
2021/05/31 09:17:48;;;;;;;2.60;1.97;;;19.10;39.40;;;;;;5142918;27;20946;-70
2021/05/31 09:20:17;;;;;;;3.90;2.40;;;19.20;39.00;;;;;;5144627;27;20471;-71
2021/05/31 09:22:46;;;;;;;3.20;1.97;;;19.40;37.90;;;;;;5146459;27;20528;-70
2021/05/31 09:25:29;;;;;;;3.60;2.00;;;19.40;37.50;;;;;;5143735;27;20484;-70
2021/05/31 09:28:00;;;;;;;4.13;2.13;;;19.50;35.60;;;;;;5139523;27;20442;-70
2021/05/31 09:30:39;;;;;;;4.00;1.87;;;19.60;37.20;;;;;;5142356;27;20431;-70
2021/05/31 09:33:11;;;;;;;3.00;2.03;;;19.60;36.20;;;;;;5142752;27;20527;-70
2021/05/31 09:35:42;;;;;;;3.20;1.40;;;19.70;37.40;;;;;;5132011;27;20463;-69
2021/05/31 09:38:09;;;;;;;4.00;1.90;;;19.70;36.30;;;;;;5145191;27;20452;-70
2021/05/31 09:40:36;;;;;;;3.50;1.77;;;19.80;37.20;;;;;;5143296;27;20815;-70
2021/05/31 09:43:06;;;;;;;2.93;1.87;;;19.90;36.10;;;;;;5145094;27;20467;-69
2021/05/31 09:45:39;;;;;;;6.13;2.03;;;19.90;35.30;;;;;;5143185;27;20481;-69
2021/05/31 09:48:10;;;;;;;5.23;1.87;;;20.00;35.00;;;;;;5143287;27;20454;-71
2021/05/31 09:50:36;;;;;;;3.90;2.53;;;20.10;36.10;;;;;;5142134;27;20445;-70
2021/05/31 09:53:10;;;;;;;4.03;1.90;;;20.20;35.60;;;;;;5141638;27;20440;-70
2021/05/31 09:55:39;;;;;;;4.03;2.20;;;20.20;35.60;;;;;;5143766;27;20510;-70
2021/05/31 09:58:14;;;;;;;2.73;1.97;;;20.30;34.70;;;;;;5139222;27;20449;-70
2021/05/31 10:00:47;;;;;;;3.00;2.10;;;20.30;33.80;;;;;;5145494;27;20443;-70
2021/05/31 10:03:24;;;;;;;3.33;2.23;;;20.40;33.80;;;;;;5152851;27;20439;-70
2021/05/31 10:05:59;;;;;;;3.10;1.57;;;20.40;34.00;;;;;;5138697;27;20485;-70
2021/05/31 10:08:43;;;;;;;4.53;2.00;;;20.50;34.90;;;;;;5127715;27;20452;-70
2021/05/31 10:11:14;;;;;;;3.90;2.10;;;20.60;33.90;;;;;;5145904;27;20515;-69
2021/05/31 10:13:43;;;;;;;3.60;2.40;;;20.60;32.30;;;;;;5151672;27;20440;-71
2021/05/31 10:16:10;;;;;;;3.33;2.10;;;20.60;32.00;;;;;;5136226;27;20515;-70
2021/05/31 10:18:41;;;;;;;4.07;1.73;;;20.60;34.10;;;;;;5133889;27;20433;-70
2021/05/31 10:21:13;;;;;;;3.50;2.10;;;20.60;34.00;;;;;;5141334;27;20433;-71
2021/05/31 10:23:41;;;;;;;6.10;1.97;;;20.70;33.80;;;;;;5143059;27;20511;-69
2021/05/31 10:26:11;;;;;;;3.10;2.00;;;20.70;33.80;;;;;;5144137;27;20526;-71
2021/05/31 10:28:42;;;;;;;3.70;2.03;;;20.70;33.70;;;;;;5133015;27;20819;-71
2021/05/31 10:31:10;;;;;;;3.37;1.83;;;20.80;32.60;;;;;;5136810;27;20432;-70
2021/05/31 10:33:39;;;;;;;3.33;1.83;;;20.90;31.50;;;;;;5138106;27;20486;-70
2021/05/31 10:36:15;;;;;;;3.27;2.33;;;20.90;32.00;;;;;;5133537;27;20433;-70
2021/05/31 10:38:46;;;;;;;2.90;2.07;;;21.00;32.50;;;;;;5143286;27;20433;-74
2021/05/31 10:41:15;;;;;;;3.60;1.50;;;21.00;31.70;;;;;;5135577;27;20452;-69
2021/05/31 10:43:44;;;;;;;2.87;1.90;;;21.00;29.10;;;;;;5148939;27;20433;-70
2021/05/31 10:46:16;;;;;;;3.00;1.87;;;21.00;29.50;;;;;;5152002;27;20499;-69
2021/05/31 10:48:45;;;;;;;3.43;1.67;;;21.00;32.00;;;;;;5141082;27;20432;-69
2021/05/31 10:51:14;;;;;;;3.33;1.53;;;21.10;30.00;;;;;;5137927;27;20433;-69
2021/05/31 10:53:42;;;;;;;3.70;1.63;;;21.10;27.60;;;;;;5133435;27;20433;-69
2021/05/31 10:56:12;;;;;;;2.83;1.50;;;21.00;28.10;;;;;;5132959;27;20781;-70
2021/05/31 10:58:41;;;;;;;2.20;1.33;;;21.00;28.20;;;;;;5135894;27;20419;-70
2021/05/31 11:01:14;;;;;;;2.93;1.30;;;21.10;29.20;;;;;;5133876;27;20417;-69
2021/05/31 11:03:51;;;;;;;2.37;1.60;;;21.30;28.90;;;;;;5141380;27;20519;-69
2021/05/31 11:06:20;;;;;;;2.77;1.37;;;21.30;28.00;;;;;;5151670;27;20476;-69
2021/05/31 11:08:51;;;;;;;1.93;1.23;;;21.40;29.20;;;;;;5150916;27;20949;-71
2021/05/31 11:11:27;;;;;;;2.27;1.40;;;21.40;28.60;;;;;;5147808;27;20432;-69
2021/05/31 11:13:54;;;;;;;2.87;1.60;;;21.40;27.20;;;;;;5149181;27;20444;-69
2021/05/31 11:16:21;;;;;;;3.20;1.40;;;21.40;26.00;;;;;;5151960;27;20447;-69
2021/05/31 11:18:54;;;;;;;3.07;1.50;;;21.40;28.00;;;;;;5144687;27;20436;-70
2021/05/31 11:21:32;;;;;;;2.63;1.40;;;21.50;28.80;;;;;;5150366;27;20790;-70
2021/05/31 11:24:03;;;;;;;2.00;1.23;;;21.60;26.20;;;;;;5148929;27;20952;-69
2021/05/31 11:26:32;;;;;;;4.07;1.33;;;21.60;26.00;;;;;;5147441;27;20484;-69
2021/05/31 11:28:58;;;;;;;2.13;1.20;;;21.60;27.30;;;;;;5151337;27;20447;-69
2021/05/31 11:31:28;;;;;;;3.60;1.40;;;21.70;28.30;;;;;;5151076;27;20436;-69
2021/05/31 11:33:56;;;;;;;2.57;1.40;;;21.60;27.60;;;;;;5136667;27;20520;-69
2021/05/31 11:36:38;;;;;;;2.70;1.77;;;21.70;26.00;;;;;;5135203;27;20483;-69
2021/05/31 11:39:10;;;;;;;3.70;1.40;;;21.60;25.90;;;;;;5147597;27;20481;-70
2021/05/31 11:41:41;;;;;;;2.43;1.57;;;21.60;26.50;;;;;;5155318;27;20440;-69
2021/05/31 11:44:10;;;;;;;3.67;2.00;;;21.70;26.30;;;;;;5152389;27;20460;-71
2021/05/31 11:46:48;;;;;;;3.07;1.67;;;21.70;27.30;;;;;;5151291;27;20475;-69
2021/05/31 11:49:15;;;;;;;3.83;1.90;;;21.70;26.00;;;;;;5147540;27;20452;-69
2021/05/31 11:51:42;;;;;;;2.87;1.80;;;21.70;27.00;;;;;;5139780;27;20498;-69
2021/05/31 11:54:20;;;;;;;2.57;1.70;;;21.80;28.30;;;;;;5137347;27;20923;-70
2021/05/31 11:56:47;;;;;;;2.73;1.80;;;21.90;28.50;;;;;;5140788;27;20530;-70
2021/05/31 11:59:16;;;;;;;3.23;1.43;;;21.90;28.10;;;;;;5136429;27;20433;-69
2021/05/31 12:01:50;;;;;;;3.03;2.00;;;21.90;27.40;;;;;;5142528;27;20531;-73
2021/05/31 12:04:19;;;;;;;3.70;1.97;;;22.00;28.20;;;;;;5140948;27;20440;-74
2021/05/31 12:06:56;;;;;;;3.17;1.80;;;22.00;27.20;;;;;;5142578;27;20998;-69
2021/05/31 12:09:24;;;;;;;3.63;1.40;;;22.00;27.60;;;;;;5151707;27;20432;-69
2021/05/31 12:11:51;;;;;;;5.67;1.43;;;22.10;27.90;;;;;;5153884;27;20428;-70
2021/05/31 12:14:21;;;;;;;4.03;2.20;;;22.10;25.60;;;;;;5152745;27;20456;-71
2021/05/31 12:16:56;;;;;;;3.13;1.70;;;22.10;25.70;;;;;;5150642;27;20436;-69
2021/05/31 12:19:23;;;;;;;2.97;1.10;;;22.00;24.10;;;;;;5141830;27;20447;-70
2021/05/31 12:21:50;;;;;;;3.80;1.97;;;21.90;26.70;;;;;;5135925;27;20994;-71
2021/05/31 12:24:26;;;;;;;3.63;1.70;;;21.90;26.90;;;;;;5151715;27;20815;-71
2021/05/31 12:26:53;;;;;;;4.47;1.70;;;21.90;25.70;;;;;;5152200;27;21054;-68
2021/05/31 12:29:20;;;;;;;2.57;1.57;;;21.80;26.40;;;;;;5148960;27;20435;-69
2021/05/31 12:31:48;;;;;;;3.73;1.93;;;21.70;26.00;;;;;;5145201;27;20424;-69
2021/05/31 12:34:24;;;;;;;3.50;2.00;;;21.70;25.40;;;;;;5136203;27;20840;-69
2021/05/31 12:36:51;;;;;;;3.00;1.67;;;21.70;27.40;;;;;;5142033;27;20430;-69
2021/05/31 12:39:17;;;;;;;2.93;1.70;;;21.70;27.30;;;;;;5137221;27;20869;-68
2021/05/31 12:41:46;;;;;;;3.07;2.10;;;21.70;27.40;;;;;;5135323;27;20441;-69
2021/05/31 12:44:13;;;;;;;2.17;1.23;;;21.60;26.90;;;;;;5137490;27;20437;-69
2021/05/31 12:46:41;;;;;;;6.47;2.00;;;21.60;27.60;;;;;;5153350;27;20468;-69
2021/05/31 12:49:08;;;;;;;2.57;1.60;;;21.60;26.20;;;;;;5152360;27;20429;-69
2021/05/31 12:51:36;;;;;;;2.80;1.90;;;21.50;28.00;;;;;;5151984;27;20913;-69
2021/05/31 12:54:05;;;;;;;3.07;1.97;;;21.50;29.40;;;;;;5153772;27;20428;-69
2021/05/31 12:56:37;;;;;;;3.83;1.47;;;21.60;28.40;;;;;;5143759;27;20472;-69
2021/05/31 12:59:08;;;;;;;3.57;2.03;;;21.60;26.50;;;;;;5143024;27;20438;-70
2021/05/31 13:01:36;;;;;;;2.90;1.70;;;21.60;26.70;;;;;;5146698;27;20436;-69
2021/05/31 13:04:03;;;;;;;2.27;1.30;;;21.60;27.20;;;;;;5149541;27;20429;-69
2021/05/31 13:06:34;;;;;;;3.40;2.40;;;21.60;28.50;;;;;;5150024;27;20564;-68